Time;durP1;ratioP1;P1;durP2;ratioP2;P2;SDS_P1;SDS_P2;PMS_P1;PMS_P2;Temp;Humidity;BMP_temperature;BMP_pressure;BME280_temperature;BME280_humidity;BME280_pressure;Samples;Min_cycle;Max_cycle;Signal;HPM_P1;HPM_P2
2020/12/16 00:01:25;;;;;;;29.55;14.88;;;11.30;99.90;;;;;;5066212;28;20056;-66
2020/12/16 00:03:52;;;;;;;24.33;14.57;;;11.30;99.90;;;;;;5060651;28;20048;-64
2020/12/16 00:06:20;;;;;;;36.55;19.13;;;11.20;99.90;;;;;;5080954;28;20052;-64
2020/12/16 00:08:49;;;;;;;32.15;17.95;;;11.20;99.90;;;;;;5077932;28;20056;-64
2020/12/16 00:11:16;;;;;;;34.97;19.30;;;11.10;99.90;;;;;;5077292;28;20468;-64
2020/12/16 00:13:44;;;;;;;36.25;19.45;;;11.10;99.90;;;;;;5076822;28;20048;-65
2020/12/16 00:16:12;;;;;;;39.22;21.05;;;11.10;99.90;;;;;;5077970;28;20051;-64
2020/12/16 00:18:39;;;;;;;40.45;20.10;;;11.10;99.90;;;;;;5086018;28;20518;-63
2020/12/16 00:21:07;;;;;;;36.95;20.15;;;11.00;99.90;;;;;;5087410;28;20048;-65
2020/12/16 00:23:35;;;;;;;45.25;23.92;;;11.00;99.90;;;;;;5082944;28;20051;-67
2020/12/16 00:26:03;;;;;;;33.58;20.25;;;10.90;99.90;;;;;;5082134;28;20051;-64
2020/12/16 00:28:31;;;;;;;39.05;21.67;;;10.90;99.90;;;;;;5083684;28;20145;-65
2020/12/16 00:30:59;;;;;;;33.97;18.52;;;10.90;99.90;;;;;;5082459;28;20082;-63
2020/12/16 00:33:26;;;;;;;35.72;19.58;;;10.80;99.90;;;;;;5081566;28;20044;-67
2020/12/16 00:35:54;;;;;;;30.48;16.88;;;10.80;99.90;;;;;;5074217;28;20040;-65
2020/12/16 00:38:21;;;;;;;35.22;19.83;;;10.80;99.90;;;;;;5107898;28;20151;-64
2020/12/16 00:40:49;;;;;;;38.70;19.67;;;10.80;99.90;;;;;;5117063;28;20051;-64
2020/12/16 00:43:16;;;;;;;33.45;19.73;;;10.80;99.90;;;;;;5094948;27;20076;-63
2020/12/16 00:45:44;;;;;;;31.90;16.90;;;10.80;99.90;;;;;;5063628;28;20625;-66
2020/12/16 00:48:12;;;;;;;33.75;16.52;;;10.80;99.90;;;;;;5081325;28;20585;-64
2020/12/16 00:50:39;;;;;;;26.58;15.85;;;10.80;99.90;;;;;;5083437;28;20048;-63
2020/12/16 00:53:07;;;;;;;26.58;15.20;;;10.70;99.90;;;;;;5099169;28;20420;-65
2020/12/16 00:55:40;;;;;;;27.77;13.57;;;10.70;99.90;;;;;;5084721;28;21163;-66
2020/12/16 00:58:12;;;;;;;23.55;13.90;;;10.70;99.90;;;;;;5070175;28;20461;-66
2020/12/16 01:00:43;;;;;;;30.52;13.63;;;10.70;99.90;;;;;;5089779;28;20105;-64
2020/12/16 01:03:11;;;;;;;27.85;14.82;;;10.70;99.90;;;;;;5082367;28;20049;-65
2020/12/16 01:05:39;;;;;;;26.17;14.27;;;10.70;99.90;;;;;;5059465;28;20040;-64
2020/12/16 01:08:08;;;;;;;36.47;18.20;;;10.70;99.90;;;;;;5061919;28;20562;-64
2020/12/16 01:10:35;;;;;;;38.30;20.52;;;10.70;99.90;;;;;;5081489;28;20047;-63
2020/12/16 01:13:05;;;;;;;28.60;18.67;;;10.80;99.90;;;;;;5084413;28;20051;-64
2020/12/16 01:15:35;;;;;;;36.17;17.35;;;10.80;99.90;;;;;;5081113;28;20036;-64
2020/12/16 01:18:06;;;;;;;34.85;18.75;;;10.80;99.90;;;;;;5081087;28;20055;-64
2020/12/16 01:20:37;;;;;;;34.50;17.30;;;10.80;99.90;;;;;;5080402;28;20410;-64
2020/12/16 01:23:18;;;;;;;32.83;16.48;;;10.80;99.90;;;;;;5087821;28;20051;-64
2020/12/16 01:25:46;;;;;;;27.33;15.30;;;10.80;99.90;;;;;;5081637;28;20044;-64
2020/12/16 01:28:15;;;;;;;25.73;14.35;;;10.80;99.90;;;;;;5079017;28;20076;-65
2020/12/16 01:30:52;;;;;;;26.42;14.57;;;10.80;99.90;;;;;;5081045;28;20124;-63
2020/12/16 01:33:20;;;;;;;22.15;13.02;;;10.80;99.90;;;;;;5076120;28;20036;-63
2020/12/16 01:35:59;;;;;;;26.38;14.55;;;10.80;99.90;;;;;;5081818;28;20043;-65
2020/12/16 01:38:29;;;;;;;28.60;13.90;;;10.70;99.90;;;;;;5083352;28;20419;-65
2020/12/16 01:41:06;;;;;;;24.63;10.80;;;10.80;99.90;;;;;;5078226;28;20068;-65
2020/12/16 01:43:41;;;;;;;24.48;13.23;;;10.70;99.90;;;;;;5070823;28;20070;-64
2020/12/16 01:46:15;;;;;;;21.83;11.38;;;10.70;99.90;;;;;;5068681;28;20418;-65
2020/12/16 01:48:43;;;;;;;20.08;12.30;;;10.70;99.90;;;;;;5082997;28;20031;-64
2020/12/16 01:51:18;;;;;;;21.30;11.82;;;10.70;99.90;;;;;;5080945;28;20045;-64
2020/12/16 01:53:51;;;;;;;22.05;9.95;;;10.70;99.90;;;;;;5096229;28;20072;-64
2020/12/16 01:56:25;;;;;;;19.85;11.57;;;10.70;99.90;;;;;;5095435;27;20044;-64
2020/12/16 01:59:16;;;;;;;17.65;10.45;;;10.80;99.90;;;;;;5085461;28;20044;-66
2020/12/16 02:01:53;;;;;;;14.68;9.63;;;10.80;99.90;;;;;;5081193;28;20150;-63
2020/12/16 02:04:24;;;;;;;19.85;10.50;;;10.80;99.90;;;;;;5075851;28;20076;-65
2020/12/16 02:06:57;;;;;;;20.67;10.73;;;10.90;99.90;;;;;;5081538;28;20048;-66
2020/12/16 02:09:27;;;;;;;17.33;9.40;;;11.00;99.90;;;;;;5077672;28;20121;-66
2020/12/16 02:12:17;;;;;;;25.00;11.85;;;11.00;99.90;;;;;;5063144;28;20441;-65
2020/12/16 02:14:45;;;;;;;18.90;9.50;;;11.00;99.90;;;;;;5067512;28;20044;-65
2020/12/16 02:17:16;;;;;;;17.48;11.55;;;11.00;99.90;;;;;;5081004;28;20040;-64
2020/12/16 02:19:57;;;;;;;24.40;11.05;;;11.00;99.90;;;;;;5095245;28;20052;-63
2020/12/16 02:22:27;;;;;;;30.52;13.63;;;11.10;99.90;;;;;;5068491;28;20529;-64
2020/12/16 02:25:13;;;;;;;21.05;11.02;;;11.00;99.90;;;;;;5083049;28;20048;-64
2020/12/16 02:27:47;;;;;;;18.67;11.75;;;11.00;99.90;;;;;;5065404;28;20135;-64
2020/12/16 02:30:23;;;;;;;18.95;10.63;;;11.00;99.90;;;;;;5082503;28;20059;-65
2020/12/16 02:33:09;;;;;;;21.73;11.38;;;11.00;99.90;;;;;;5083071;28;20044;-64
2020/12/16 02:35:47;;;;;;;17.40;10.00;;;11.00;99.90;;;;;;5069669;28;20048;-63
2020/12/16 02:38:19;;;;;;;23.80;11.20;;;11.00;99.90;;;;;;5095463;28;20403;-65
2020/12/16 02:40:47;;;;;;;16.98;8.80;;;11.00;99.90;;;;;;5078598;28;20597;-64
2020/12/16 02:43:15;;;;;;;14.77;9.45;;;11.00;99.90;;;;;;5077329;28;20049;-64
2020/12/16 02:45:45;;;;;;;15.23;8.75;;;11.00;99.90;;;;;;5080424;28;20447;-66
2020/12/16 02:48:17;;;;;;;16.40;8.82;;;11.00;99.90;;;;;;5077120;28;20051;-65
2020/12/16 02:50:46;;;;;;;16.48;9.70;;;11.00;99.90;;;;;;5077948;28;20077;-63
2020/12/16 02:53:14;;;;;;;18.20;10.43;;;11.00;99.90;;;;;;5075769;28;20538;-63
2020/12/16 02:56:00;;;;;;;14.57;9.20;;;11.10;99.90;;;;;;5080002;28;20052;-65
2020/12/16 02:58:44;;;;;;;21.65;11.07;;;11.10;99.90;;;;;;5072312;28;20136;-64
2020/12/16 03:01:12;;;;;;;14.63;9.77;;;11.10;99.90;;;;;;5054943;28;20052;-65
2020/12/16 03:04:09;;;;;;;18.35;9.57;;;11.00;99.90;;;;;;5074643;28;20130;-64
2020/12/16 03:06:51;;;;;;;24.45;12.32;;;11.00;99.90;;;;;;5080211;28;20504;-64
2020/12/16 03:09:24;;;;;;;34.13;16.70;;;11.00;99.90;;;;;;5060728;28;20097;-64
2020/12/16 03:11:56;;;;;;;36.92;16.92;;;11.00;99.90;;;;;;5079857;28;20043;-65
2020/12/16 03:14:34;;;;;;;29.50;17.38;;;11.00;99.90;;;;;;5064135;28;20525;-66
2020/12/16 03:17:02;;;;;;;20.77;13.27;;;11.00;99.90;;;;;;5075535;28;20507;-65
2020/12/16 03:19:36;;;;;;;22.23;12.02;;;11.00;99.90;;;;;;5077678;28;20548;-65
2020/12/16 03:22:04;;;;;;;22.73;13.35;;;11.00;99.90;;;;;;5073529;28;20084;-65
2020/12/16 03:24:50;;;;;;;;;;;11.00;99.90;;;;;;5081463;28;20048;-64
2020/12/16 03:27:40;;;;;;;23.73;14.35;;;11.00;99.90;;;;;;5061222;28;19928;-65
2020/12/16 03:30:34;;;;;;;23.48;13.25;;;11.00;99.90;;;;;;5075736;28;20073;-65
2020/12/16 03:33:19;;;;;;;29.52;14.80;;;11.00;99.90;;;;;;5079073;28;20048;-65
2020/12/16 03:35:55;;;;;;;;;;;11.10;99.90;;;;;;5081351;28;20047;-64
2020/12/16 03:38:23;;;;;;;19.08;11.27;;;11.00;99.90;;;;;;5080035;28;19928;-65
2020/12/16 03:40:57;;;;;;;17.65;10.10;;;11.00;99.90;;;;;;5080432;28;20070;-64
2020/12/16 03:43:29;;;;;;;17.65;11.43;;;11.00;99.90;;;;;;5077452;28;21624;-64
2020/12/16 03:45:57;;;;;;;31.00;14.05;;;10.90;99.90;;;;;;5082492;28;20053;-66
2020/12/16 03:48:24;;;;;;;21.73;13.63;;;10.90;99.90;;;;;;5078384;28;20178;-65
2020/12/16 03:50:52;;;;;;;22.67;14.90;;;11.00;99.90;;;;;;5063926;28;20052;-65
2020/12/16 03:53:20;;;;;;;17.27;10.80;;;11.00;99.90;;;;;;5057549;28;20048;-66
2020/12/16 03:56:15;;;;;;;17.95;13.07;;;11.00;99.90;;;;;;5079408;28;20108;-65
2020/12/16 03:59:09;;;;;;;17.35;10.95;;;11.00;99.90;;;;;;5069591;28;20040;-64
2020/12/16 04:01:45;;;;;;;19.05;10.13;;;11.00;99.90;;;;;;5076828;28;20515;-65
2020/12/16 04:04:13;;;;;;;16.20;9.93;;;11.00;99.90;;;;;;5064513;28;20036;-61
2020/12/16 04:06:48;;;;;;;20.08;10.80;;;11.10;99.90;;;;;;5094236;28;20059;-64
2020/12/16 04:09:15;;;;;;;20.05;9.55;;;11.10;99.90;;;;;;5083873;28;20423;-65
2020/12/16 04:11:48;;;;;;;17.85;11.05;;;11.00;99.90;;;;;;5084357;28;20446;-65
2020/12/16 04:14:27;;;;;;;17.27;10.02;;;11.00;99.90;;;;;;5075432;28;20049;-65
2020/12/16 04:16:56;;;;;;;19.23;11.10;;;11.00;99.90;;;;;;5084390;28;20506;-65
2020/12/16 04:19:32;;;;;;;15.82;11.10;;;10.90;99.90;;;;;;5062608;28;20044;-65
2020/12/16 04:22:00;;;;;;;19.10;12.02;;;11.00;99.90;;;;;;5075947;28;20534;-64
2020/12/16 04:24:35;;;;;;;19.10;10.82;;;11.00;99.90;;;;;;5074577;28;20074;-64
2020/12/16 04:27:08;;;;;;;17.77;10.38;;;11.00;99.90;;;;;;5077130;28;20048;-64
2020/12/16 04:29:38;;;;;;;20.33;10.68;;;10.90;99.90;;;;;;5087836;28;20123;-62
2020/12/16 04:32:10;;;;;;;14.98;9.52;;;10.90;99.90;;;;;;5068734;28;20086;-65
2020/12/16 04:34:45;;;;;;;16.13;8.77;;;10.80;99.90;;;;;;5078706;28;20044;-66
2020/12/16 04:37:13;;;;;;;12.48;8.57;;;10.80;99.90;;;;;;5065748;28;20044;-63
2020/12/16 04:39:46;;;;;;;19.17;10.07;;;10.80;99.90;;;;;;5078864;28;20044;-65
2020/12/16 04:42:16;;;;;;;18.15;11.95;;;10.80;99.90;;;;;;5081643;28;20050;-64
2020/12/16 04:44:44;;;;;;;16.08;10.40;;;10.80;99.90;;;;;;5077382;28;20048;-64
2020/12/16 04:47:17;;;;;;;16.75;10.45;;;10.70;99.90;;;;;;5082328;28;20044;-63
2020/12/16 04:49:51;;;;;;;19.30;11.15;;;10.70;99.90;;;;;;5081403;28;20531;-65
2020/12/16 04:52:25;;;;;;;16.73;11.05;;;10.70;99.90;;;;;;5064513;28;20558;-64
2020/12/16 04:55:10;;;;;;;16.75;10.95;;;10.70;99.90;;;;;;5078985;28;20036;-64
2020/12/16 04:57:52;;;;;;;13.82;9.93;;;10.60;99.90;;;;;;5063618;28;20415;-64
2020/12/16 05:00:23;;;;;;;17.33;10.70;;;10.60;99.90;;;;;;5076928;28;20070;-64
2020/12/16 05:03:10;;;;;;;13.02;8.88;;;10.60;99.90;;;;;;5084549;28;20079;-64
2020/12/16 05:05:54;;;;;;;16.88;9.85;;;10.60;99.90;;;;;;5078584;28;20419;-67
2020/12/16 05:08:23;;;;;;;12.65;8.20;;;10.70;99.90;;;;;;5077202;28;20060;-64
2020/12/16 05:10:50;;;;;;;13.77;9.05;;;10.70;99.90;;;;;;5089133;28;20126;-64
2020/12/16 05:13:20;;;;;;;13.57;9.15;;;10.80;99.90;;;;;;5080626;28;20048;-64
2020/12/16 05:15:49;;;;;;;17.55;10.40;;;10.80;99.90;;;;;;5084409;28;20123;-64
2020/12/16 05:18:20;;;;;;;14.77;9.93;;;10.80;99.90;;;;;;5074556;28;20179;-65
2020/12/16 05:20:53;;;;;;;11.70;8.35;;;10.80;99.90;;;;;;5080595;28;20400;-64
2020/12/16 05:23:26;;;;;;;13.73;9.57;;;10.80;99.90;;;;;;5084985;28;20051;-64
2020/12/16 05:26:01;;;;;;;15.73;10.05;;;10.80;99.90;;;;;;5065018;28;20068;-65
2020/12/16 05:28:30;;;;;;;;;;;10.70;99.90;;;;;;5089785;28;20063;-64
2020/12/16 05:30:58;;;;;;;64.15;33.10;;;10.70;99.90;;;;;;5082529;28;20011;-64
2020/12/16 05:33:26;;;;;;;29.77;18.00;;;10.70;99.90;;;;;;5097792;28;20075;-65
2020/12/16 05:35:55;;;;;;;24.70;12.70;;;10.70;99.90;;;;;;5076418;28;20403;-64
2020/12/16 05:38:23;;;;;;;20.50;12.10;;;10.70;99.90;;;;;;5097251;28;20055;-65
2020/12/16 05:40:51;;;;;;;21.45;12.70;;;10.70;99.90;;;;;;5096844;28;20047;-64
2020/12/16 05:43:28;;;;;;;31.13;13.32;;;10.70;99.90;;;;;;5096337;28;20484;-63
2020/12/16 05:45:56;;;;;;;18.65;10.35;;;10.70;99.90;;;;;;5088134;28;20043;-65
2020/12/16 05:48:29;;;;;;;21.48;12.43;;;10.80;99.90;;;;;;5086090;28;20059;-65
2020/12/16 05:50:59;;;;;;;20.75;10.70;;;10.80;99.90;;;;;;5081844;28;20045;-65
2020/12/16 05:53:28;;;;;;;21.02;9.80;;;10.80;99.90;;;;;;5057617;28;20407;-67
2020/12/16 05:55:58;;;;;;;19.73;10.45;;;10.90;99.90;;;;;;5073779;28;20522;-65
2020/12/16 05:58:31;;;;;;;17.75;9.40;;;11.00;99.90;;;;;;5073393;28;20056;-65
2020/12/16 06:01:04;;;;;;;15.25;9.13;;;11.00;99.90;;;;;;5074122;28;20048;-65
2020/12/16 06:03:37;;;;;;;14.90;7.88;;;11.10;99.90;;;;;;5056802;28;20086;-66
2020/12/16 06:06:07;;;;;;;15.27;9.10;;;11.10;99.90;;;;;;5086106;28;20105;-64
2020/12/16 06:08:42;;;;;;;17.23;9.48;;;11.20;99.90;;;;;;5082655;28;20097;-65
2020/12/16 06:11:12;;;;;;;12.93;9.37;;;11.10;99.90;;;;;;5073149;28;20059;-65
2020/12/16 06:13:45;;;;;;;16.38;7.80;;;11.10;99.90;;;;;;5077173;28;20313;-65
2020/12/16 06:16:13;;;;;;;15.10;7.00;;;11.10;99.90;;;;;;5089216;28;20040;-64
2020/12/16 06:18:44;;;;;;;12.13;7.45;;;11.10;99.90;;;;;;5087399;28;20130;-65
2020/12/16 06:21:13;;;;;;;12.60;6.80;;;11.10;99.90;;;;;;5096646;28;20040;-64
2020/12/16 06:23:43;;;;;;;15.25;7.55;;;11.20;99.90;;;;;;5093904;28;20123;-64
2020/12/16 06:26:20;;;;;;;18.60;6.90;;;11.20;99.90;;;;;;5087563;28;20445;-64
2020/12/16 06:28:48;;;;;;;10.68;7.05;;;11.30;99.90;;;;;;5100585;28;20051;-64
2020/12/16 06:31:27;;;;;;;16.05;8.88;;;11.30;99.90;;;;;;5093832;28;20040;-64
2020/12/16 06:34:10;;;;;;;14.52;7.88;;;11.40;99.90;;;;;;5095235;28;20073;-65
2020/12/16 06:36:40;;;;;;;12.07;8.15;;;11.40;99.90;;;;;;5091918;28;20044;-65
2020/12/16 06:39:18;;;;;;;25.85;15.20;;;11.50;99.90;;;;;;5086523;28;20048;-65
2020/12/16 06:41:55;;;;;;;56.67;35.55;;;11.60;99.90;;;;;;5102860;28;20055;-65
2020/12/16 06:44:22;;;;;;;67.95;40.33;;;11.70;99.90;;;;;;5096882;28;20048;-64
2020/12/16 06:46:54;;;;;;;66.45;40.65;;;11.70;99.90;;;;;;5096178;28;20044;-65
2020/12/16 06:49:22;;;;;;;48.00;27.95;;;11.80;99.90;;;;;;5092492;28;20056;-65
2020/12/16 06:51:51;;;;;;;25.63;17.42;;;11.90;99.90;;;;;;5093850;28;20053;-65
2020/12/16 06:54:20;;;;;;;29.50;14.48;;;12.00;99.90;;;;;;5091779;28;20563;-65
2020/12/16 06:57:09;;;;;;;42.40;19.42;;;12.10;99.90;;;;;;5072297;28;20045;-64
2020/12/16 06:59:42;;;;;;;37.28;17.33;;;12.10;99.90;;;;;;5073565;28;20055;-64
2020/12/16 07:02:11;;;;;;;26.08;13.10;;;12.20;99.90;;;;;;5074041;28;20136;-65
2020/12/16 07:04:42;;;;;;;23.70;12.55;;;12.30;99.90;;;;;;5094000;28;20488;-65
2020/12/16 07:07:50;;;;;;;25.98;13.70;;;12.40;99.90;;;;;;5093928;28;20574;-65
2020/12/16 07:10:41;;;;;;;26.38;12.27;;;12.40;99.90;;;;;;5072846;28;20136;-65
2020/12/16 07:13:23;;;;;;;19.10;11.32;;;12.50;99.90;;;;;;5081681;28;20055;-65
2020/12/16 07:16:03;;;;;;;17.85;10.70;;;12.50;99.90;;;;;;5076231;28;20113;-64
2020/12/16 07:18:40;;;;;;;24.67;10.95;;;12.60;99.90;;;;;;5094506;28;20047;-66
2020/12/16 07:21:19;;;;;;;31.88;14.38;;;12.60;99.90;;;;;;5093378;28;20048;-65
2020/12/16 07:24:04;;;;;;;44.40;18.33;;;12.70;99.90;;;;;;5080503;28;20052;-65
2020/12/16 07:26:53;;;;;;;31.38;15.93;;;12.70;99.90;;;;;;5072153;28;20617;-65
2020/12/16 07:29:25;;;;;;;25.83;12.07;;;12.80;99.90;;;;;;5085486;28;20074;-65
2020/12/16 07:32:04;;;;;;;28.08;12.55;;;12.90;99.90;;;;;;5082104;28;20151;-65
2020/12/16 07:34:58;;;;;;;20.67;11.52;;;12.90;99.90;;;;;;5077085;28;20049;-65
2020/12/16 07:37:28;;;;;;;25.33;14.35;;;13.00;99.90;;;;;;5073316;28;20122;-65
2020/12/16 07:40:04;;;;;;;49.58;22.27;;;13.10;99.90;;;;;;5089846;28;20071;-65
2020/12/16 07:42:33;;;;;;;;;;;13.10;99.90;;;;;;5082446;28;20068;-65
2020/12/16 07:45:05;;;;;;;191.63;90.68;;;13.20;99.90;;;;;;5073268;28;19921;-65
2020/12/16 07:47:40;;;;;;;137.13;69.55;;;13.30;99.90;;;;;;5083775;28;20056;-64
2020/12/16 07:50:11;;;;;;;106.93;51.80;;;13.40;99.90;;;;;;5093358;28;20048;-64
2020/12/16 07:52:39;;;;;;;97.18;48.95;;;13.60;99.90;;;;;;5091424;28;20052;-64
2020/12/16 07:55:09;;;;;;;98.22;53.90;;;13.70;99.90;;;;;;5092392;28;20043;-65
2020/12/16 07:57:37;;;;;;;83.32;48.72;;;13.80;99.90;;;;;;5071621;28;20041;-64
2020/12/16 08:00:05;;;;;;;67.05;40.00;;;13.90;99.90;;;;;;5055290;28;20059;-65
2020/12/16 08:02:44;;;;;;;59.13;28.40;;;14.10;99.90;;;;;;5066115;28;20084;-65
2020/12/16 08:05:14;;;;;;;42.25;25.38;;;14.20;99.90;;;;;;5073130;28;20052;-65
2020/12/16 08:07:42;;;;;;;44.28;24.60;;;14.30;99.90;;;;;;5091434;28;20062;-65
2020/12/16 08:10:10;;;;;;;26.92;15.85;;;14.40;99.90;;;;;;5092104;28;20105;-64
2020/12/16 08:12:42;;;;;;;24.38;15.05;;;14.60;99.90;;;;;;5077163;28;20041;-65
2020/12/16 08:15:19;;;;;;;26.00;12.80;;;14.70;99.90;;;;;;5091971;28;20069;-65
2020/12/16 08:17:52;;;;;;;22.15;13.27;;;14.90;99.90;;;;;;5072553;28;20124;-65
2020/12/16 08:20:26;;;;;;;28.48;15.90;;;15.00;99.90;;;;;;5073192;28;20067;-65
2020/12/16 08:23:00;;;;;;;21.02;12.85;;;15.10;99.90;;;;;;5083608;28;20080;-65
2020/12/16 08:25:31;;;;;;;29.80;15.10;;;15.20;99.90;;;;;;5071664;28;20179;-65
2020/12/16 08:28:04;;;;;;;31.85;15.27;;;15.40;99.90;;;;;;5087640;28;20421;-65
2020/12/16 08:30:33;;;;;;;23.48;13.68;;;15.50;99.90;;;;;;5081019;28;20051;-65
2020/12/16 08:33:06;;;;;;;17.98;10.45;;;15.60;99.90;;;;;;5093230;28;20055;-65
2020/12/16 08:35:53;;;;;;;15.85;7.63;;;15.60;99.90;;;;;;5075509;28;20049;-65
2020/12/16 08:38:35;;;;;;;12.80;5.78;;;15.70;99.90;;;;;;5077155;28;20123;-65
2020/12/16 08:41:05;;;;;;;11.82;5.60;;;15.80;99.90;;;;;;5095360;28;20048;-65
2020/12/16 08:43:39;;;;;;;13.60;5.25;;;15.90;99.90;;;;;;5073346;28;20041;-65
2020/12/16 08:46:07;;;;;;;10.88;5.82;;;16.00;99.90;;;;;;5091962;28;20048;-65
2020/12/16 08:48:54;;;;;;;11.52;5.05;;;16.10;99.90;;;;;;5099575;28;20040;-65
2020/12/16 08:51:33;;;;;;;10.23;4.35;;;16.20;99.90;;;;;;5087603;28;20044;-65
2020/12/16 08:54:16;;;;;;;13.27;4.70;;;16.40;99.90;;;;;;5080417;28;20056;-65
2020/12/16 08:56:52;;;;;;;9.27;4.00;;;16.50;99.90;;;;;;5080218;28;20056;-65
2020/12/16 08:59:22;;;;;;;;;;;16.60;99.90;;;;;;5060511;28;20063;-66
2020/12/16 09:01:55;;;;;;;12.02;3.72;;;16.60;99.90;;;;;;5085198;28;19924;-65
2020/12/16 09:04:38;;;;;;;9.75;4.13;;;16.70;99.90;;;;;;5093920;28;20055;-65
2020/12/16 09:07:23;;;;;;;9.48;4.50;;;16.70;99.90;;;;;;5083125;28;20067;-66
2020/12/16 09:09:50;;;;;;;6.68;3.60;;;16.60;99.90;;;;;;5074563;28;20048;-66
2020/12/16 09:12:21;;;;;;;10.50;3.60;;;16.50;99.90;;;;;;5058201;28;20423;-69
2020/12/16 09:15:02;;;;;;;7.05;3.10;;;16.50;99.90;;;;;;5058618;28;20045;-66
2020/12/16 09:17:32;;;;;;;13.35;8.02;;;16.40;99.90;;;;;;5094528;28;20044;-67
2020/12/16 09:19:59;;;;;;;15.07;9.43;;;16.40;99.90;;;;;;5094335;28;20083;-66
2020/12/16 09:22:29;;;;;;;12.70;7.65;;;16.20;99.90;;;;;;5094839;28;20040;-67
2020/12/16 09:24:58;;;;;;;10.70;5.60;;;16.20;99.90;;;;;;5125506;27;20044;-67
2020/12/16 09:27:28;;;;;;;24.52;6.13;;;16.20;99.90;;;;;;5094095;28;20495;-67
2020/12/16 09:29:55;;;;;;;9.18;4.88;;;16.30;99.90;;;;;;5073163;28;20509;-67
2020/12/16 09:32:27;;;;;;;10.57;5.53;;;16.50;99.90;;;;;;5077794;28;20422;-66
2020/12/16 09:35:00;;;;;;;9.90;5.18;;;16.70;99.90;;;;;;5094914;28;20044;-67
2020/12/16 09:37:35;;;;;;;6.60;3.35;;;16.80;99.90;;;;;;5094372;28;20117;-66
2020/12/16 09:40:12;;;;;;;10.68;3.55;;;17.00;99.90;;;;;;5094985;28;20052;-64
2020/12/16 09:42:54;;;;;;;7.85;3.65;;;17.10;99.90;;;;;;5095086;28;20048;-66
2020/12/16 09:45:22;;;;;;;6.35;3.75;;;17.10;99.90;;;;;;5095730;28;20058;-66
2020/12/16 09:47:54;;;;;;;9.27;3.17;;;17.20;99.90;;;;;;5092668;28;20065;-66
2020/12/16 09:50:33;;;;;;;8.10;3.70;;;17.20;99.90;;;;;;5095115;28;20122;-66
2020/12/16 09:53:03;;;;;;;12.07;3.35;;;17.20;99.90;;;;;;5076528;28;20055;-66
2020/12/16 09:55:40;;;;;;;10.77;3.92;;;17.20;99.90;;;;;;5094114;28;20054;-66
2020/12/16 09:58:12;;;;;;;10.52;3.97;;;17.20;99.90;;;;;;5094910;28;20072;-64
2020/12/16 10:00:41;;;;;;;7.05;3.00;;;17.30;99.90;;;;;;5093634;28;20131;-66
2020/12/16 10:03:11;;;;;;;5.75;2.75;;;17.30;99.90;;;;;;5094141;28;20047;-65
2020/12/16 10:05:40;;;;;;;6.65;2.65;;;17.40;99.90;;;;;;5094237;28;20052;-66
2020/12/16 10:08:17;;;;;;;9.98;2.67;;;17.40;99.90;;;;;;5093439;28;20101;-67
2020/12/16 10:10:45;;;;;;;7.22;1.77;;;17.40;99.90;;;;;;5094701;28;20052;-66
2020/12/16 10:13:14;;;;;;;8.27;3.28;;;17.30;99.90;;;;;;5094635;28;20048;-67
2020/12/16 10:15:42;;;;;;;10.07;3.17;;;17.30;99.90;;;;;;5093188;28;20055;-66
2020/12/16 10:18:10;;;;;;;19.73;9.13;;;17.40;99.90;;;;;;5074612;28;20136;-66
2020/12/16 10:20:40;;;;;;;14.23;5.90;;;17.40;99.90;;;;;;5094117;28;20087;-67
2020/12/16 10:23:08;;;;;;;9.80;4.82;;;17.40;99.90;;;;;;5093292;28;20048;-67
2020/12/16 10:25:36;;;;;;;9.00;3.03;;;17.40;99.90;;;;;;5093495;28;20172;-67
2020/12/16 10:28:09;;;;;;;4.55;2.67;;;17.40;99.90;;;;;;5094226;28;20052;-66
2020/12/16 10:30:41;;;;;;;10.60;5.57;;;17.40;99.90;;;;;;5092613;28;20044;-67
2020/12/16 10:33:08;;;;;;;10.48;3.58;;;17.40;99.90;;;;;;5093265;28;20036;-67
2020/12/16 10:35:36;;;;;;;10.32;3.50;;;17.40;99.90;;;;;;5087488;28;20076;-67
2020/12/16 10:38:04;;;;;;;11.63;3.33;;;17.30;99.90;;;;;;5092630;28;20521;-66
2020/12/16 10:40:32;;;;;;;9.13;4.03;;;17.40;99.90;;;;;;5094551;28;20048;-66
2020/12/16 10:43:01;;;;;;;8.18;4.45;;;17.50;99.90;;;;;;5096476;28;20054;-66
2020/12/16 10:45:31;;;;;;;6.88;3.53;;;17.40;99.90;;;;;;5097063;28;20522;-66
2020/12/16 10:48:02;;;;;;;9.02;3.33;;;17.50;99.90;;;;;;5093001;28;20135;-65
2020/12/16 10:50:30;;;;;;;6.68;2.72;;;17.60;99.90;;;;;;5088262;28;20577;-66
2020/12/16 10:52:59;;;;;;;15.07;4.43;;;17.70;99.90;;;;;;5088548;28;20060;-66
2020/12/16 10:55:29;;;;;;;9.93;3.72;;;17.80;99.90;;;;;;5092725;28;20048;-66
2020/12/16 10:57:57;;;;;;;4.95;2.25;;;17.90;99.90;;;;;;5091935;28;20044;-65
2020/12/16 11:00:25;;;;;;;4.53;2.33;;;18.00;99.90;;;;;;5071534;28;20052;-66
2020/12/16 11:02:55;;;;;;;4.97;2.70;;;18.10;99.90;;;;;;5081703;28;20056;-65
2020/12/16 11:05:26;;;;;;;7.55;2.47;;;18.20;99.90;;;;;;5094136;28;20044;-65
2020/12/16 11:07:53;;;;;;;4.93;1.92;;;18.10;99.90;;;;;;5093377;28;20055;-65
2020/12/16 11:10:21;;;;;;;7.88;2.20;;;18.00;99.90;;;;;;5091898;28;20048;-66
2020/12/16 11:12:49;;;;;;;6.47;2.45;;;17.90;99.90;;;;;;5087199;28;20558;-65
2020/12/16 11:15:20;;;;;;;16.17;4.53;;;17.80;99.90;;;;;;5094177;28;20487;-65
2020/12/16 11:17:50;;;;;;;13.10;3.50;;;17.70;99.90;;;;;;5091740;28;20056;-65
2020/12/16 11:20:18;;;;;;;7.43;4.35;;;17.80;99.90;;;;;;5083107;28;20048;-65
2020/12/16 11:22:49;;;;;;;11.38;6.22;;;17.80;99.90;;;;;;5091894;28;20048;-66
2020/12/16 11:25:17;;;;;;;25.98;12.02;;;17.80;99.90;;;;;;5092288;28;20076;-65
2020/12/16 11:27:44;;;;;;;110.53;49.22;;;18.00;99.90;;;;;;5092087;28;20105;-65
2020/12/16 11:30:12;;;;;;;104.60;43.78;;;18.10;99.90;;;;;;5088296;28;20039;-66
2020/12/16 11:32:43;;;;;;;52.83;30.95;;;18.20;99.90;;;;;;5093037;28;20047;-66
2020/12/16 11:35:10;;;;;;;28.05;17.98;;;18.20;99.90;;;;;;5079233;28;20080;-66
2020/12/16 11:37:43;;;;;;;11.73;4.38;;;18.20;99.90;;;;;;5087858;28;20062;-65
2020/12/16 11:40:11;;;;;;;11.45;5.07;;;18.20;99.90;;;;;;5091917;28;20545;-66
2020/12/16 11:42:39;;;;;;;9.18;4.40;;;18.20;99.90;;;;;;5092072;28;20123;-66
2020/12/16 11:45:07;;;;;;;7.97;4.43;;;18.20;99.90;;;;;;5092562;28;20052;-66
2020/12/16 11:47:35;;;;;;;13.90;5.22;;;18.10;99.90;;;;;;5088222;28;20148;-65
2020/12/16 11:50:10;;;;;;;7.80;3.33;;;18.10;99.90;;;;;;5092735;28;20044;-65
2020/12/16 11:52:38;;;;;;;6.20;2.67;;;18.10;99.90;;;;;;5090847;28;20449;-65
2020/12/16 11:55:07;;;;;;;5.78;3.13;;;18.10;99.90;;;;;;5091199;28;20043;-65
2020/12/16 11:57:34;;;;;;;6.43;2.35;;;18.10;99.90;;;;;;5091368;28;20495;-65
2020/12/16 12:00:04;;;;;;;8.98;2.95;;;18.20;99.90;;;;;;5093243;28;20499;-65
2020/12/16 12:02:33;;;;;;;6.18;2.33;;;18.20;99.90;;;;;;5091520;28;20127;-65
2020/12/16 12:05:02;;;;;;;6.40;3.05;;;18.30;99.90;;;;;;5079776;28;20105;-64
2020/12/16 12:07:30;;;;;;;3.90;2.00;;;18.40;99.90;;;;;;5074686;28;20055;-65
2020/12/16 12:09:58;;;;;;;10.48;4.28;;;18.50;99.90;;;;;;5092857;28;20090;-64
2020/12/16 12:12:28;;;;;;;6.72;3.63;;;18.60;99.90;;;;;;5091093;28;20047;-65
2020/12/16 12:14:56;;;;;;;7.07;3.20;;;18.60;99.90;;;;;;5090882;28;20048;-66
2020/12/16 12:17:24;;;;;;;8.50;3.35;;;18.60;99.90;;;;;;5092110;28;20044;-66
2020/12/16 12:19:55;;;;;;;7.55;3.63;;;18.60;99.90;;;;;;5090442;28;20123;-66
2020/12/16 12:22:22;;;;;;;7.60;4.30;;;18.60;99.90;;;;;;5093153;28;20056;-66
2020/12/16 12:24:51;;;;;;;6.60;3.25;;;18.50;99.90;;;;;;5108845;28;20048;-66
2020/12/16 12:27:19;;;;;;;7.25;3.63;;;18.40;99.90;;;;;;5101333;28;20059;-66
2020/12/16 12:29:47;;;;;;;9.45;3.75;;;18.30;99.90;;;;;;5093553;28;20144;-66
2020/12/16 12:32:17;;;;;;;11.45;3.78;;;18.30;99.90;;;;;;5094918;28;20079;-65
2020/12/16 12:34:45;;;;;;;7.90;3.78;;;18.30;99.90;;;;;;5091022;28;20116;-64
2020/12/16 12:37:12;;;;;;;6.65;3.72;;;18.40;99.90;;;;;;5090793;28;20044;-65
2020/12/16 12:39:49;;;;;;;8.02;4.32;;;18.40;99.90;;;;;;5095719;28;20060;-65
2020/12/16 12:42:17;;;;;;;5.15;3.65;;;18.30;99.90;;;;;;5086441;28;20052;-64
2020/12/16 12:44:45;;;;;;;11.38;4.18;;;18.30;99.90;;;;;;5091582;28;20545;-64
2020/12/16 12:47:13;;;;;;;6.47;3.17;;;18.30;99.90;;;;;;5104633;28;20074;-65
2020/12/16 12:49:41;;;;;;;7.55;4.13;;;18.30;99.90;;;;;;5083998;28;20040;-64
2020/12/16 12:52:08;;;;;;;18.38;8.88;;;18.30;99.90;;;;;;5075350;28;20070;-64
2020/12/16 12:54:36;;;;;;;8.60;4.38;;;18.30;99.90;;;;;;5102307;28;20126;-64
2020/12/16 12:57:04;;;;;;;10.20;4.15;;;18.30;99.90;;;;;;5098465;28;20445;-64
2020/12/16 12:59:31;;;;;;;8.65;3.15;;;18.20;99.90;;;;;;5090402;28;20151;-65
2020/12/16 13:01:59;;;;;;;10.30;3.85;;;18.10;99.90;;;;;;5093562;28;20522;-65